SAS936 KSFO-EKCH
Flight info
| Callsign | SAS936 |
|---|---|
| Flight time | N/A |
| Altitude | 33000 |
| Route | SNTNA2 ORRCA DCT FIMUV DCT KU72I DCT KU84K DCT KU09M DCT COUTS DCT WALSH DCT YPA/N0477F350 DCT 55N103W 60N094W/N0478F370 64N085W 67N070W/M082F370 DCT CANEL DCT 69N050W 69N040W/M082F390 69N030W 68N020W 67N010W 64N000E/N0464F390 DCT BURIX DCT INTUM DCT TIPSO DCT TESPI |
| Aircraft | A343/H-SDE2E3FGHIJ4J5M1RWXY/LB1D1 |
Departure
| Time | N/A |
|---|---|
| Airport | San Francisco International Airport (KSFO) |
Arrival
| Time | 2026-04-30 10:17 |
|---|---|
| Airport | Copenhagen Kastrup Airport (EKCH) |
| Time | Latitude | Longitude | Altitude | Speed | Heading |
|---|---|---|---|---|---|
| 2026-04-30 07:21 | 68.92221 | -28.89156 | 34827 ft | 510 kts | 103° |
| 2026-04-30 07:21 | 68.90786 | -28.69854 | 34826 ft | 510 kts | 104° |
| 2026-04-30 07:22 | 68.88591 | -28.40969 | 34825 ft | 511 kts | 104° |
| 2026-04-30 07:22 | 68.87086 | -28.21592 | 34830 ft | 517 kts | 104° |
| 2026-04-30 07:23 | 68.85545 | -28.02021 | 34826 ft | 523 kts | 104° |
| 2026-04-30 07:23 | 68.83977 | -27.82334 | 34828 ft | 523 kts | 105° |
| 2026-04-30 07:24 | 68.82378 | -27.62731 | 34831 ft | 522 kts | 105° |
| 2026-04-30 07:24 | 68.80757 | -27.43161 | 34830 ft | 522 kts | 105° |
| 2026-04-30 07:25 | 68.79122 | -27.23661 | 34814 ft | 522 kts | 105° |
| 2026-04-30 07:25 | 68.77457 | -27.04151 | 34825 ft | 521 kts | 106° |
| 2026-04-30 07:26 | 68.75775 | -26.84696 | 34811 ft | 521 kts | 106° |
| 2026-04-30 07:26 | 68.74083 | -26.65377 | 34812 ft | 522 kts | 107° |
| 2026-04-30 07:27 | 68.71729 | -26.46565 | 34821 ft | 514 kts | 120° |
| 2026-04-30 07:27 | 68.69121 | -26.28159 | 34810 ft | 519 kts | 111° |
| 2026-04-30 07:28 | 68.67152 | -26.09020 | 34806 ft | 521 kts | 107° |
| 2026-04-30 07:28 | 68.65400 | -25.89678 | 34777 ft | 522 kts | 107° |
| 2026-04-30 07:29 | 68.63638 | -25.70381 | 34779 ft | 522 kts | 108° |
| 2026-04-30 07:29 | 68.61834 | -25.51272 | 34777 ft | 521 kts | 108° |
| 2026-04-30 07:30 | 68.59047 | -25.22504 | 34773 ft | 521 kts | 108° |
| 2026-04-30 07:31 | 68.57162 | -25.03390 | 34776 ft | 521 kts | 109° |
| 2026-04-30 07:31 | 68.55255 | -24.84293 | 34777 ft | 521 kts | 109° |
| 2026-04-30 07:32 | 68.53327 | -24.65233 | 34775 ft | 520 kts | 109° |
| 2026-04-30 07:32 | 68.51381 | -24.46229 | 34779 ft | 520 kts | 109° |
| 2026-04-30 07:33 | 68.49408 | -24.27232 | 34768 ft | 521 kts | 110° |
| 2026-04-30 07:33 | 68.47415 | -24.08267 | 34766 ft | 520 kts | 110° |
| 2026-04-30 07:34 | 68.45403 | -23.89349 | 34767 ft | 521 kts | 110° |
| 2026-04-30 07:34 | 68.43368 | -23.70467 | 34767 ft | 520 kts | 110° |
| 2026-04-30 07:35 | 68.41314 | -23.51632 | 34768 ft | 520 kts | 111° |
| 2026-04-30 07:35 | 68.39239 | -23.32829 | 34784 ft | 520 kts | 111° |
| 2026-04-30 07:36 | 68.37147 | -23.14093 | 34785 ft | 519 kts | 111° |
| 2026-04-30 07:36 | 68.35034 | -22.95398 | 34791 ft | 519 kts | 112° |
| 2026-04-30 07:37 | 68.32903 | -22.76762 | 34794 ft | 518 kts | 112° |
| 2026-04-30 07:37 | 68.30752 | -22.58164 | 34795 ft | 518 kts | 112° |
| 2026-04-30 07:38 | 68.28582 | -22.39627 | 34798 ft | 518 kts | 112° |
| 2026-04-30 07:38 | 68.26395 | -22.21139 | 34793 ft | 517 kts | 113° |
| 2026-04-30 07:39 | 68.24192 | -22.02701 | 34797 ft | 516 kts | 113° |
| 2026-04-30 07:39 | 68.21964 | -21.84309 | 34797 ft | 516 kts | 113° |
| 2026-04-30 07:40 | 68.19716 | -21.65958 | 34784 ft | 516 kts | 114° |
| 2026-04-30 07:40 | 68.17451 | -21.47645 | 34783 ft | 516 kts | 114° |
| 2026-04-30 07:41 | 68.15169 | -21.29387 | 34787 ft | 516 kts | 114° |
| 2026-04-30 07:41 | 68.12860 | -21.11129 | 34787 ft | 517 kts | 114° |
| 2026-04-30 07:42 | 68.10546 | -20.93018 | 34787 ft | 517 kts | 115° |
| 2026-04-30 07:42 | 68.08195 | -20.74822 | 34785 ft | 517 kts | 115° |
| 2026-04-30 07:43 | 68.05827 | -20.56678 | 34788 ft | 517 kts | 115° |
| 2026-04-30 07:43 | 68.03439 | -20.38554 | 34784 ft | 517 kts | 116° |
| 2026-04-30 07:44 | 68.01034 | -20.20498 | 34787 ft | 517 kts | 116° |
| 2026-04-30 07:44 | 67.98685 | -20.02349 | 34784 ft | 521 kts | 111° |
| 2026-04-30 07:45 | 67.97180 | -19.83359 | 34785 ft | 526 kts | 107° |
| 2026-04-30 07:45 | 67.95876 | -19.64187 | 34785 ft | 526 kts | 106° |
| 2026-04-30 07:46 | 67.94585 | -19.45012 | 34785 ft | 526 kts | 107° |
| 2026-04-30 07:46 | 67.93260 | -19.25888 | 34786 ft | 525 kts | 107° |
| 2026-04-30 07:47 | 67.91899 | -19.06803 | 34785 ft | 525 kts | 107° |
| 2026-04-30 07:47 | 67.90513 | -18.87748 | 34782 ft | 525 kts | 108° |
| 2026-04-30 07:48 | 67.89104 | -18.68715 | 34794 ft | 525 kts | 108° |
| 2026-04-30 07:48 | 67.87673 | -18.49697 | 34839 ft | 526 kts | 108° |
| 2026-04-30 07:49 | 67.86220 | -18.30702 | 34841 ft | 526 kts | 108° |
| 2026-04-30 07:49 | 67.84743 | -18.11699 | 34841 ft | 527 kts | 108° |
| 2026-04-30 07:50 | 67.83243 | -17.92698 | 34849 ft | 527 kts | 109° |
| 2026-04-30 07:50 | 67.81724 | -17.73744 | 34851 ft | 526 kts | 109° |
| 2026-04-30 07:51 | 67.80185 | -17.54829 | 34851 ft | 526 kts | 109° |
| 2026-04-30 07:51 | 67.78635 | -17.36083 | 34851 ft | 525 kts | 110° |
| 2026-04-30 07:52 | 67.77051 | -17.17254 | 34851 ft | 525 kts | 110° |
| 2026-04-30 07:52 | 67.75450 | -16.98458 | 34850 ft | 524 kts | 110° |
| 2026-04-30 07:53 | 67.73827 | -16.79718 | 34851 ft | 524 kts | 111° |
| 2026-04-30 07:53 | 67.72184 | -16.60987 | 34849 ft | 524 kts | 111° |
| 2026-04-30 07:54 | 67.70515 | -16.42271 | 34851 ft | 525 kts | 111° |
| 2026-04-30 07:54 | 67.68827 | -16.23558 | 34851 ft | 525 kts | 111° |
| 2026-04-30 07:55 | 67.67118 | -16.04887 | 34854 ft | 526 kts | 112° |
| 2026-04-30 07:55 | 67.65384 | -15.86218 | 34860 ft | 526 kts | 112° |
| 2026-04-30 07:56 | 67.63631 | -15.67580 | 34859 ft | 524 kts | 112° |
| 2026-04-30 07:56 | 67.61862 | -15.49028 | 34860 ft | 524 kts | 113° |
| 2026-04-30 07:57 | 67.60065 | -15.30477 | 34860 ft | 525 kts | 113° |
| 2026-04-30 07:57 | 67.58250 | -15.11995 | 34859 ft | 524 kts | 114° |
| 2026-04-30 07:58 | 67.56416 | -14.93554 | 34859 ft | 523 kts | 114° |
| 2026-04-30 07:58 | 67.54567 | -14.75153 | 34861 ft | 522 kts | 114° |
| 2026-04-30 07:59 | 67.52696 | -14.56814 | 34888 ft | 523 kts | 115° |
| 2026-04-30 07:59 | 67.50798 | -14.38463 | 34888 ft | 523 kts | 115° |
| 2026-04-30 08:00 | 67.47913 | -14.10950 | 34925 ft | 524 kts | 115° |
| 2026-04-30 08:00 | 67.45971 | -13.92670 | 34925 ft | 523 kts | 115° |
| 2026-04-30 08:01 | 67.44014 | -13.74535 | 34905 ft | 524 kts | 116° |
| 2026-04-30 08:01 | 67.42029 | -13.56314 | 34919 ft | 523 kts | 116° |
| 2026-04-30 08:02 | 67.39015 | -13.29046 | 34916 ft | 523 kts | 117° |
| 2026-04-30 08:03 | 67.34920 | -12.92809 | 34916 ft | 524 kts | 117° |
| 2026-04-30 08:04 | 67.32841 | -12.74728 | 34915 ft | 523 kts | 117° |
| 2026-04-30 08:04 | 67.30744 | -12.56677 | 34924 ft | 522 kts | 118° |
| 2026-04-30 08:05 | 67.28627 | -12.38676 | 34934 ft | 524 kts | 118° |
| 2026-04-30 08:05 | 67.26483 | -12.20669 | 34933 ft | 524 kts | 118° |
| 2026-04-30 08:06 | 67.24318 | -12.02671 | 34934 ft | 524 kts | 118° |
| 2026-04-30 08:06 | 67.22136 | -11.84718 | 34938 ft | 525 kts | 119° |
| 2026-04-30 08:07 | 67.19933 | -11.66786 | 34944 ft | 524 kts | 119° |
| 2026-04-30 08:07 | 67.17707 | -11.48887 | 34943 ft | 524 kts | 119° |
| 2026-04-30 08:08 | 67.15844 | -11.34042 | 34942 ft | 524 kts | 119° |
| 2026-04-30 08:08 | 67.13213 | -11.13320 | 34944 ft | 525 kts | 119° |
| 2026-04-30 08:09 | 67.10927 | -10.95499 | 34942 ft | 525 kts | 120° |
| 2026-04-30 08:09 | 67.08623 | -10.77735 | 34953 ft | 524 kts | 120° |
| 2026-04-30 08:10 | 67.06676 | -10.62862 | 34952 ft | 524 kts | 120° |
| 2026-04-30 08:10 | 67.04340 | -10.45180 | 34952 ft | 523 kts | 120° |
| 2026-04-30 08:11 | 67.01985 | -10.27559 | 34953 ft | 523 kts | 120° |
| 2026-04-30 08:11 | 66.99613 | -10.09987 | 34961 ft | 522 kts | 120° |
| 2026-04-30 08:11 | 66.98253 | -10.01500 | 34959 ft | 509 kts | 129° |
| 2026-04-30 08:12 | 66.96598 | -9.93742 | 34960 ft | 502 kts | 132° |
| 2026-04-30 08:12 | 66.93027 | -9.78449 | 34962 ft | 502 kts | 134° |
| 2026-04-30 08:13 | 66.89354 | -9.63338 | 34961 ft | 502 kts | 134° |
| 2026-04-30 08:13 | 66.85674 | -9.48257 | 34971 ft | 502 kts | 134° |
| 2026-04-30 08:14 | 66.81998 | -9.33218 | 34972 ft | 501 kts | 134° |
| 2026-04-30 08:14 | 66.78309 | -9.18205 | 34971 ft | 501 kts | 134° |
| 2026-04-30 08:15 | 66.74605 | -9.03231 | 34974 ft | 502 kts | 134° |
| 2026-04-30 08:15 | 66.70883 | -8.88278 | 34981 ft | 502 kts | 134° |
| 2026-04-30 08:16 | 66.67148 | -8.73380 | 34967 ft | 502 kts | 134° |
| 2026-04-30 08:16 | 66.63402 | -8.58535 | 34963 ft | 501 kts | 134° |
| 2026-04-30 08:17 | 66.59653 | -8.43772 | 34965 ft | 501 kts | 134° |
| 2026-04-30 08:17 | 66.55882 | -8.29033 | 34971 ft | 500 kts | 134° |
| 2026-04-30 08:18 | 66.52108 | -8.14379 | 34971 ft | 500 kts | 134° |
| 2026-04-30 08:18 | 66.48317 | -7.99756 | 34977 ft | 500 kts | 134° |
| 2026-04-30 08:19 | 66.44514 | -7.85188 | 34981 ft | 500 kts | 134° |
| 2026-04-30 08:19 | 66.40693 | -7.70650 | 34980 ft | 501 kts | 134° |
| 2026-04-30 08:20 | 66.36857 | -7.56148 | 34965 ft | 500 kts | 135° |
| 2026-04-30 08:20 | 66.33007 | -7.41685 | 34961 ft | 501 kts | 135° |
| 2026-04-30 08:21 | 66.29139 | -7.27250 | 34970 ft | 502 kts | 135° |
| 2026-04-30 08:21 | 66.25251 | -7.12834 | 35015 ft | 503 kts | 135° |
| 2026-04-30 08:22 | 66.21370 | -6.98536 | 35053 ft | 504 kts | 135° |
| 2026-04-30 08:22 | 66.17442 | -6.84167 | 35054 ft | 504 kts | 135° |
| 2026-04-30 08:23 | 66.13505 | -6.69829 | 35060 ft | 505 kts | 135° |
| 2026-04-30 08:23 | 66.09540 | -6.55508 | 35060 ft | 505 kts | 135° |
| 2026-04-30 08:24 | 66.05567 | -6.41253 | 35069 ft | 505 kts | 134° |
| 2026-04-30 08:24 | 66.01576 | -6.27023 | 35077 ft | 505 kts | 134° |
| 2026-04-30 08:25 | 65.97572 | -6.12839 | 35084 ft | 505 kts | 134° |
| 2026-04-30 08:25 | 65.93559 | -5.98703 | 35095 ft | 505 kts | 135° |
| 2026-04-30 08:26 | 65.89537 | -5.84625 | 35095 ft | 504 kts | 135° |
| 2026-04-30 08:26 | 65.85501 | -5.70584 | 35110 ft | 504 kts | 135° |
| 2026-04-30 08:27 | 65.81459 | -5.56617 | 35113 ft | 504 kts | 135° |
| 2026-04-30 08:27 | 65.77405 | -5.42699 | 35120 ft | 503 kts | 135° |
| 2026-04-30 08:28 | 65.73345 | -5.28851 | 35118 ft | 503 kts | 135° |
| 2026-04-30 08:28 | 65.69271 | -5.15039 | 35130 ft | 503 kts | 135° |
| 2026-04-30 08:29 | 65.65182 | -5.01261 | 35126 ft | 503 kts | 135° |
| 2026-04-30 08:29 | 65.61080 | -4.87527 | 35131 ft | 503 kts | 134° |
| 2026-04-30 08:30 | 65.56963 | -4.73826 | 35140 ft | 504 kts | 135° |
| 2026-04-30 08:30 | 65.52832 | -4.60158 | 35139 ft | 504 kts | 135° |
| 2026-04-30 08:31 | 65.48710 | -4.46604 | 35136 ft | 505 kts | 135° |
| 2026-04-30 08:31 | 65.44550 | -4.33007 | 35175 ft | 505 kts | 135° |
| 2026-04-30 08:32 | 65.40371 | -4.19434 | 35193 ft | 506 kts | 135° |
| 2026-04-30 08:32 | 65.36176 | -4.05891 | 35192 ft | 505 kts | 135° |
| 2026-04-30 08:33 | 65.31977 | -3.92415 | 35194 ft | 505 kts | 135° |
| 2026-04-30 08:33 | 65.27758 | -3.78960 | 35203 ft | 505 kts | 135° |
| 2026-04-30 08:34 | 65.23532 | -3.65567 | 35201 ft | 505 kts | 135° |
| 2026-04-30 08:34 | 65.19295 | -3.52211 | 35201 ft | 505 kts | 135° |
| 2026-04-30 08:35 | 65.15050 | -3.38907 | 35210 ft | 505 kts | 135° |
| 2026-04-30 08:35 | 65.10794 | -3.25646 | 35211 ft | 505 kts | 135° |
| 2026-04-30 08:36 | 65.06524 | -3.12439 | 35211 ft | 504 kts | 135° |
| 2026-04-30 08:36 | 65.02250 | -2.99299 | 35220 ft | 504 kts | 135° |
| 2026-04-30 08:37 | 64.97967 | -2.86199 | 35220 ft | 503 kts | 135° |
| 2026-04-30 08:37 | 64.93677 | -2.73159 | 35221 ft | 503 kts | 135° |
| 2026-04-30 08:38 | 64.89373 | -2.60144 | 35220 ft | 503 kts | 135° |
| 2026-04-30 08:38 | 64.85070 | -2.47202 | 35229 ft | 502 kts | 135° |
| 2026-04-30 08:39 | 64.80758 | -2.34308 | 35229 ft | 502 kts | 135° |
| 2026-04-30 08:39 | 64.76463 | -2.21551 | 35229 ft | 501 kts | 135° |
| 2026-04-30 08:40 | 64.72133 | -2.08761 | 35230 ft | 501 kts | 135° |
| 2026-04-30 08:40 | 64.67788 | -1.96001 | 35248 ft | 502 kts | 135° |
| 2026-04-30 08:41 | 64.63441 | -1.83300 | 35248 ft | 500 kts | 135° |
| 2026-04-30 08:41 | 64.59083 | -1.70644 | 35248 ft | 500 kts | 135° |
| 2026-04-30 08:42 | 64.54720 | -1.58049 | 35248 ft | 500 kts | 135° |
| 2026-04-30 08:42 | 64.50343 | -1.45486 | 35265 ft | 500 kts | 135° |
| 2026-04-30 08:43 | 64.45957 | -1.32964 | 35255 ft | 500 kts | 135° |
| 2026-04-30 08:43 | 64.41559 | -1.20480 | 35274 ft | 500 kts | 135° |
| 2026-04-30 08:44 | 64.37152 | -1.08035 | 35274 ft | 500 kts | 136° |
| 2026-04-30 08:44 | 64.32735 | -0.95638 | 35278 ft | 500 kts | 136° |
| 2026-04-30 08:45 | 64.28307 | -0.83278 | 35274 ft | 500 kts | 136° |
| 2026-04-30 08:45 | 64.23867 | -0.70950 | 35280 ft | 500 kts | 136° |
| 2026-04-30 08:46 | 64.19417 | -0.58661 | 35278 ft | 501 kts | 136° |
| 2026-04-30 08:46 | 64.14952 | -0.46399 | 35286 ft | 501 kts | 136° |
| 2026-04-30 08:47 | 64.10479 | -0.34179 | 35285 ft | 501 kts | 136° |
| 2026-04-30 08:47 | 64.05995 | -0.22001 | 35288 ft | 500 kts | 136° |
| 2026-04-30 08:48 | 64.01502 | -0.09865 | 35295 ft | 500 kts | 137° |
| 2026-04-30 08:48 | 63.96980 | 0.02163 | 35295 ft | 497 kts | 138° |
| 2026-04-30 08:49 | 63.92159 | 0.13308 | 35292 ft | 495 kts | 141° |
| 2026-04-30 08:49 | 63.87192 | 0.24242 | 35295 ft | 499 kts | 141° |
| 2026-04-30 08:50 | 63.82243 | 0.35292 | 35302 ft | 499 kts | 140° |
| 2026-04-30 08:50 | 63.77325 | 0.46382 | 35302 ft | 499 kts | 140° |
| 2026-04-30 08:51 | 63.72406 | 0.57462 | 35304 ft | 499 kts | 140° |
| 2026-04-30 08:51 | 63.67477 | 0.68502 | 35307 ft | 499 kts | 140° |
| 2026-04-30 08:52 | 63.62570 | 0.79425 | 35313 ft | 499 kts | 140° |
| 2026-04-30 08:52 | 63.57623 | 0.90374 | 35312 ft | 499 kts | 140° |
| 2026-04-30 08:53 | 63.52667 | 1.01292 | 35310 ft | 499 kts | 140° |
| 2026-04-30 08:53 | 63.47705 | 1.12172 | 35320 ft | 499 kts | 140° |
| 2026-04-30 08:54 | 63.42730 | 1.23020 | 35321 ft | 499 kts | 140° |
| 2026-04-30 08:54 | 63.37749 | 1.33824 | 35321 ft | 500 kts | 140° |
| 2026-04-30 08:55 | 63.32755 | 1.44593 | 35331 ft | 500 kts | 140° |
| 2026-04-30 08:55 | 63.27752 | 1.55343 | 35330 ft | 500 kts | 140° |
| 2026-04-30 08:56 | 63.22740 | 1.66055 | 35334 ft | 500 kts | 140° |
| 2026-04-30 08:56 | 63.17712 | 1.76740 | 35338 ft | 500 kts | 140° |
| 2026-04-30 08:57 | 63.13512 | 1.85528 | 35339 ft | 499 kts | 141° |
| 2026-04-30 08:57 | 63.08368 | 1.95818 | 35350 ft | 498 kts | 142° |
| 2026-04-30 08:58 | 63.03206 | 2.06031 | 35365 ft | 499 kts | 141° |
| 2026-04-30 08:58 | 62.98044 | 2.16258 | 35367 ft | 500 kts | 141° |
| 2026-04-30 08:59 | 62.92875 | 2.26488 | 35370 ft | 500 kts | 141° |
| 2026-04-30 08:59 | 62.87701 | 2.36681 | 35373 ft | 500 kts | 141° |
| 2026-04-30 09:00 | 62.82524 | 2.46832 | 35394 ft | 499 kts | 141° |
| 2026-04-30 09:00 | 62.77339 | 2.56940 | 35394 ft | 500 kts | 141° |
| 2026-04-30 09:01 | 62.72150 | 2.67018 | 35394 ft | 500 kts | 141° |
| 2026-04-30 09:01 | 62.66973 | 2.77024 | 35395 ft | 500 kts | 141° |
| 2026-04-30 09:02 | 62.59165 | 2.92017 | 35404 ft | 496 kts | 142° |
| 2026-04-30 09:02 | 62.54010 | 3.01856 | 35403 ft | 493 kts | 142° |
| 2026-04-30 09:03 | 62.48856 | 3.11645 | 35405 ft | 493 kts | 142° |
| 2026-04-30 09:03 | 62.43688 | 3.21412 | 35404 ft | 494 kts | 142° |
| 2026-04-30 09:04 | 62.38511 | 3.31151 | 35403 ft | 494 kts | 142° |
| 2026-04-30 09:04 | 62.33320 | 3.40869 | 35405 ft | 495 kts | 142° |
| 2026-04-30 09:05 | 62.28119 | 3.50557 | 35404 ft | 495 kts | 142° |
| 2026-04-30 09:05 | 62.22909 | 3.60219 | 35403 ft | 495 kts | 142° |
| 2026-04-30 09:06 | 62.17690 | 3.69854 | 35427 ft | 496 kts | 142° |
| 2026-04-30 09:06 | 62.12457 | 3.79464 | 35431 ft | 496 kts | 142° |
| 2026-04-30 09:07 | 62.07216 | 3.89043 | 35431 ft | 496 kts | 142° |
| 2026-04-30 09:07 | 62.01972 | 3.98587 | 35440 ft | 496 kts | 142° |
| 2026-04-30 09:08 | 61.96720 | 4.08097 | 35440 ft | 496 kts | 142° |
| 2026-04-30 09:08 | 61.91498 | 4.17514 | 35439 ft | 496 kts | 142° |
| 2026-04-30 09:09 | 61.86230 | 4.26967 | 35440 ft | 496 kts | 142° |
| 2026-04-30 09:09 | 61.80959 | 4.36382 | 35440 ft | 496 kts | 142° |
| 2026-04-30 09:10 | 61.75687 | 4.45759 | 35448 ft | 496 kts | 142° |
| 2026-04-30 09:10 | 61.70399 | 4.55109 | 35450 ft | 496 kts | 142° |
| 2026-04-30 09:11 | 61.65107 | 4.64427 | 35450 ft | 496 kts | 142° |
| 2026-04-30 09:11 | 61.59808 | 4.73718 | 35448 ft | 496 kts | 142° |
| 2026-04-30 09:12 | 61.54501 | 4.82974 | 35447 ft | 496 kts | 142° |
| 2026-04-30 09:12 | 61.49186 | 4.92205 | 35450 ft | 497 kts | 142° |
| 2026-04-30 09:13 | 61.43862 | 5.01422 | 35451 ft | 497 kts | 142° |
| 2026-04-30 09:13 | 61.38529 | 5.10607 | 35448 ft | 497 kts | 142° |
| 2026-04-30 09:14 | 61.33185 | 5.19763 | 35451 ft | 497 kts | 142° |
| 2026-04-30 09:14 | 61.27834 | 5.28888 | 35448 ft | 498 kts | 142° |
| 2026-04-30 09:15 | 61.22471 | 5.37995 | 35440 ft | 498 kts | 142° |
| 2026-04-30 09:15 | 61.17101 | 5.47066 | 35438 ft | 498 kts | 142° |
| 2026-04-30 09:16 | 61.11726 | 5.56106 | 35440 ft | 498 kts | 142° |
| 2026-04-30 09:16 | 61.06348 | 5.65115 | 35440 ft | 498 kts | 142° |
| 2026-04-30 09:17 | 61.00966 | 5.74090 | 35441 ft | 498 kts | 142° |
| 2026-04-30 09:17 | 60.95538 | 5.82751 | 35452 ft | 496 kts | 147° |
| 2026-04-30 09:18 | 60.89767 | 5.90534 | 35448 ft | 496 kts | 149° |
| 2026-04-30 09:18 | 60.83936 | 5.98106 | 35454 ft | 496 kts | 149° |
| 2026-04-30 09:19 | 60.78102 | 6.05618 | 35452 ft | 496 kts | 149° |
| 2026-04-30 09:19 | 60.72257 | 6.13135 | 35446 ft | 496 kts | 149° |
| 2026-04-30 09:20 | 60.66414 | 6.20642 | 35460 ft | 496 kts | 149° |
| 2026-04-30 09:20 | 60.60576 | 6.28118 | 35459 ft | 495 kts | 149° |
| 2026-04-30 09:21 | 60.54736 | 6.35553 | 35459 ft | 495 kts | 149° |
| 2026-04-30 09:21 | 60.48886 | 6.42966 | 35459 ft | 495 kts | 149° |
| 2026-04-30 09:22 | 60.43031 | 6.50356 | 35459 ft | 496 kts | 149° |
| 2026-04-30 09:22 | 60.37175 | 6.57718 | 35459 ft | 496 kts | 149° |
| 2026-04-30 09:23 | 60.31318 | 6.65050 | 35458 ft | 495 kts | 149° |
| 2026-04-30 09:23 | 60.25455 | 6.72358 | 35458 ft | 495 kts | 149° |
| 2026-04-30 09:24 | 60.19629 | 6.79587 | 35457 ft | 494 kts | 149° |
| 2026-04-30 09:24 | 60.13768 | 6.86828 | 35459 ft | 495 kts | 149° |
| 2026-04-30 09:25 | 60.07894 | 6.94047 | 35460 ft | 495 kts | 149° |
| 2026-04-30 09:25 | 60.02025 | 7.01240 | 35466 ft | 495 kts | 149° |
| 2026-04-30 09:26 | 59.96151 | 7.08405 | 35467 ft | 494 kts | 149° |
| 2026-04-30 09:26 | 59.90289 | 7.15526 | 35461 ft | 493 kts | 149° |
| 2026-04-30 09:27 | 59.84424 | 7.22628 | 35458 ft | 493 kts | 149° |
| 2026-04-30 09:27 | 59.78554 | 7.29701 | 35458 ft | 493 kts | 149° |
| 2026-04-30 09:28 | 59.72690 | 7.36736 | 35458 ft | 493 kts | 149° |
| 2026-04-30 09:28 | 59.66824 | 7.43744 | 35456 ft | 492 kts | 149° |
| 2026-04-30 09:29 | 59.60968 | 7.50759 | 35459 ft | 492 kts | 148° |
| 2026-04-30 09:29 | 59.55172 | 7.57965 | 35457 ft | 492 kts | 148° |
| 2026-04-30 09:30 | 59.52290 | 7.61570 | 35701 ft | 488 kts | 148° |
| 2026-04-30 09:30 | 59.49440 | 7.65122 | 36095 ft | 483 kts | 148° |
| 2026-04-30 09:30 | 59.46601 | 7.68637 | 36367 ft | 480 kts | 148° |
| 2026-04-30 09:30 | 59.43777 | 7.72120 | 36536 ft | 479 kts | 148° |
| 2026-04-30 09:31 | 59.40951 | 7.75592 | 36690 ft | 479 kts | 148° |
| 2026-04-30 09:31 | 59.38126 | 7.79049 | 36874 ft | 477 kts | 149° |
| 2026-04-30 09:31 | 59.35317 | 7.82484 | 37141 ft | 474 kts | 149° |
| 2026-04-30 09:31 | 59.32532 | 7.85881 | 37349 ft | 472 kts | 149° |
| 2026-04-30 09:32 | 59.26948 | 7.92673 | 37429 ft | 472 kts | 149° |
| 2026-04-30 09:32 | 59.21376 | 7.99420 | 37430 ft | 470 kts | 149° |
| 2026-04-30 09:33 | 59.15818 | 8.06120 | 37430 ft | 470 kts | 149° |
| 2026-04-30 09:33 | 59.10245 | 8.12817 | 37424 ft | 471 kts | 149° |
| 2026-04-30 09:34 | 59.04669 | 8.19493 | 37423 ft | 471 kts | 149° |
| 2026-04-30 09:34 | 58.99090 | 8.26148 | 37422 ft | 471 kts | 149° |
| 2026-04-30 09:35 | 58.93353 | 8.32241 | 37425 ft | 470 kts | 157° |
| 2026-04-30 09:35 | 58.87327 | 8.37133 | 37422 ft | 470 kts | 158° |
| 2026-04-30 09:36 | 58.81273 | 8.41938 | 37422 ft | 470 kts | 158° |
| 2026-04-30 09:36 | 58.75216 | 8.46718 | 37421 ft | 470 kts | 158° |
| 2026-04-30 09:37 | 58.69155 | 8.51477 | 37422 ft | 470 kts | 158° |
| 2026-04-30 09:37 | 58.63100 | 8.56216 | 37424 ft | 470 kts | 158° |
| 2026-04-30 09:38 | 58.57037 | 8.60940 | 37432 ft | 471 kts | 158° |
| 2026-04-30 09:38 | 58.50965 | 8.65654 | 37432 ft | 471 kts | 158° |
| 2026-04-30 09:39 | 58.44899 | 8.70346 | 37430 ft | 471 kts | 158° |
| 2026-04-30 09:39 | 58.38826 | 8.75027 | 37430 ft | 471 kts | 158° |
| 2026-04-30 09:40 | 58.32747 | 8.79694 | 37430 ft | 471 kts | 158° |
| 2026-04-30 09:40 | 58.26661 | 8.84348 | 37430 ft | 472 kts | 158° |
| 2026-04-30 09:41 | 58.20561 | 8.88998 | 37432 ft | 472 kts | 158° |
| 2026-04-30 09:41 | 58.14463 | 8.93632 | 37430 ft | 472 kts | 158° |
| 2026-04-30 09:42 | 58.08361 | 8.98246 | 37434 ft | 473 kts | 158° |
| 2026-04-30 09:42 | 58.02253 | 9.02850 | 37440 ft | 473 kts | 158° |
| 2026-04-30 09:43 | 57.96130 | 9.07446 | 37437 ft | 474 kts | 158° |
| 2026-04-30 09:43 | 57.91035 | 9.11259 | 37440 ft | 474 kts | 158° |
| 2026-04-30 09:44 | 57.84903 | 9.15832 | 37447 ft | 474 kts | 158° |
| 2026-04-30 09:44 | 57.78772 | 9.20389 | 37458 ft | 474 kts | 158° |
| 2026-04-30 09:45 | 57.72630 | 9.24937 | 37464 ft | 475 kts | 158° |
| 2026-04-30 09:45 | 57.66478 | 9.29472 | 37447 ft | 475 kts | 158° |
| 2026-04-30 09:46 | 57.60320 | 9.34002 | 37462 ft | 476 kts | 158° |
| 2026-04-30 09:46 | 57.54158 | 9.38513 | 37467 ft | 476 kts | 158° |
| 2026-04-30 09:47 | 57.47995 | 9.43012 | 37463 ft | 476 kts | 158° |
| 2026-04-30 09:47 | 57.41826 | 9.47496 | 37472 ft | 476 kts | 158° |
| 2026-04-30 09:48 | 57.35652 | 9.51968 | 37478 ft | 477 kts | 158° |
| 2026-04-30 09:48 | 57.29471 | 9.56429 | 37476 ft | 477 kts | 158° |
| 2026-04-30 09:49 | 57.23291 | 9.60873 | 37476 ft | 477 kts | 158° |
| 2026-04-30 09:49 | 57.17105 | 9.65307 | 37475 ft | 477 kts | 158° |
| 2026-04-30 09:50 | 57.10922 | 9.69722 | 37486 ft | 477 kts | 158° |
| 2026-04-30 09:50 | 57.04750 | 9.74113 | 37484 ft | 477 kts | 158° |
| 2026-04-30 09:51 | 56.98551 | 9.78509 | 37486 ft | 477 kts | 158° |
| 2026-04-30 09:51 | 56.92355 | 9.82884 | 37484 ft | 478 kts | 158° |
| 2026-04-30 09:52 | 56.86144 | 9.87255 | 37486 ft | 478 kts | 158° |
| 2026-04-30 09:52 | 56.79941 | 9.91605 | 37484 ft | 478 kts | 158° |
| 2026-04-30 09:53 | 56.73731 | 9.95946 | 37485 ft | 478 kts | 158° |
| 2026-04-30 09:53 | 56.67512 | 10.00278 | 37487 ft | 479 kts | 158° |
| 2026-04-30 09:54 | 56.61284 | 10.04600 | 37485 ft | 480 kts | 157° |
| 2026-04-30 09:54 | 56.55031 | 10.08925 | 37486 ft | 481 kts | 157° |
| 2026-04-30 09:55 | 56.48770 | 10.13238 | 37487 ft | 481 kts | 157° |
| 2026-04-30 09:55 | 56.42506 | 10.17539 | 37484 ft | 481 kts | 157° |
| 2026-04-30 09:56 | 56.36242 | 10.21824 | 37488 ft | 481 kts | 157° |
| 2026-04-30 09:56 | 56.29984 | 10.26090 | 37486 ft | 481 kts | 157° |
| 2026-04-30 09:57 | 56.23724 | 10.30345 | 37485 ft | 481 kts | 157° |
| 2026-04-30 09:57 | 56.17463 | 10.34582 | 37486 ft | 481 kts | 158° |
| 2026-04-30 09:58 | 56.11204 | 10.38805 | 37488 ft | 481 kts | 158° |
| 2026-04-30 09:58 | 56.04939 | 10.43014 | 37485 ft | 481 kts | 158° |
| 2026-04-30 09:59 | 55.98891 | 10.48007 | 37485 ft | 476 kts | 144° |
| 2026-04-30 09:59 | 55.94084 | 10.55794 | 36787 ft | 462 kts | 123° |
| 2026-04-30 10:00 | 55.91392 | 10.65879 | 35716 ft | 452 kts | 103° |
| 2026-04-30 10:00 | 55.90455 | 10.71243 | 35070 ft | 454 kts | 103° |
| 2026-04-30 10:01 | 55.88571 | 10.82045 | 33782 ft | 459 kts | 103° |
| 2026-04-30 10:01 | 55.87610 | 10.87484 | 33152 ft | 460 kts | 103° |
| 2026-04-30 10:01 | 55.86644 | 10.92924 | 32518 ft | 462 kts | 103° |
| 2026-04-30 10:02 | 55.84692 | 11.03838 | 31240 ft | 463 kts | 103° |
| 2026-04-30 10:02 | 55.83715 | 11.09258 | 30948 ft | 455 kts | 103° |
| 2026-04-30 10:02 | 55.82757 | 11.14550 | 30732 ft | 446 kts | 103° |
| 2026-04-30 10:02 | 55.81814 | 11.19746 | 30514 ft | 437 kts | 103° |
| 2026-04-30 10:03 | 55.80891 | 11.24827 | 30319 ft | 428 kts | 103° |
| 2026-04-30 10:03 | 55.79983 | 11.29820 | 30035 ft | 422 kts | 102° |
| 2026-04-30 10:03 | 55.79081 | 11.34779 | 29538 ft | 421 kts | 102° |
| 2026-04-30 10:03 | 55.78181 | 11.39715 | 29126 ft | 419 kts | 102° |
| 2026-04-30 10:04 | 55.77406 | 11.44654 | 28703 ft | 410 kts | 94° |
| 2026-04-30 10:04 | 55.77052 | 11.49632 | 28306 ft | 404 kts | 90° |
| 2026-04-30 10:04 | 55.76787 | 11.54587 | 27789 ft | 403 kts | 90° |
| 2026-04-30 10:04 | 55.76523 | 11.59601 | 26947 ft | 412 kts | 90° |
| 2026-04-30 10:05 | 55.76247 | 11.64678 | 26318 ft | 414 kts | 90° |
| 2026-04-30 10:05 | 55.75963 | 11.69756 | 25833 ft | 412 kts | 90° |
| 2026-04-30 10:05 | 55.75675 | 11.74802 | 25350 ft | 410 kts | 90° |
| 2026-04-30 10:05 | 55.75387 | 11.79806 | 24886 ft | 407 kts | 90° |
| 2026-04-30 10:06 | 55.75097 | 11.84806 | 24396 ft | 405 kts | 90° |
| 2026-04-30 10:06 | 55.74810 | 11.89763 | 23774 ft | 405 kts | 90° |
| 2026-04-30 10:06 | 55.74516 | 11.94785 | 22886 ft | 412 kts | 90° |
| 2026-04-30 10:06 | 55.74216 | 11.99813 | 21885 ft | 407 kts | 91° |
| 2026-04-30 10:07 | 55.73916 | 12.04766 | 20448 ft | 400 kts | 91° |
| 2026-04-30 10:07 | 55.73621 | 12.09636 | 18957 ft | 395 kts | 91° |
| 2026-04-30 10:07 | 55.73329 | 12.14441 | 17531 ft | 388 kts | 91° |
| 2026-04-30 10:07 | 55.73040 | 12.19164 | 16125 ft | 381 kts | 91° |
| 2026-04-30 10:08 | 55.72755 | 12.23793 | 14706 ft | 375 kts | 91° |
| 2026-04-30 10:08 | 55.72517 | 12.27626 | 13524 ft | 369 kts | 91° |
| 2026-04-30 10:08 | 55.72239 | 12.32116 | 12113 ft | 364 kts | 91° |
| 2026-04-30 10:08 | 55.71965 | 12.36543 | 10739 ft | 358 kts | 92° |
| 2026-04-30 10:09 | 55.71692 | 12.40909 | 9240 ft | 355 kts | 92° |
| 2026-04-30 10:09 | 55.71420 | 12.45251 | 7718 ft | 354 kts | 93° |
| 2026-04-30 10:09 | 55.71204 | 12.49576 | 6207 ft | 350 kts | 86° |
| 2026-04-30 10:09 | 55.71725 | 12.53694 | 4955 ft | 337 kts | 63° |
| 2026-04-30 10:10 | 55.72737 | 12.57273 | 4314 ft | 313 kts | 59° |
| 2026-04-30 10:10 | 55.73719 | 12.60576 | 3827 ft | 292 kts | 59° |
| 2026-04-30 10:10 | 55.74660 | 12.63573 | 3603 ft | 264 kts | 52° |
| 2026-04-30 10:10 | 55.75835 | 12.65879 | 3448 ft | 243 kts | 39° |
| 2026-04-30 10:11 | 55.77076 | 12.67832 | 3275 ft | 235 kts | 37° |
| 2026-04-30 10:11 | 55.78298 | 12.69718 | 3120 ft | 229 kts | 37° |
| 2026-04-30 10:11 | 55.79462 | 12.71588 | 2997 ft | 223 kts | 44° |
| 2026-04-30 10:11 | 55.80132 | 12.73985 | 2971 ft | 217 kts | 79° |
| 2026-04-30 10:12 | 55.80024 | 12.76656 | 2986 ft | 219 kts | 101° |
| 2026-04-30 10:12 | 55.79436 | 12.79170 | 2991 ft | 222 kts | 121° |
| 2026-04-30 10:12 | 55.78497 | 12.81347 | 2993 ft | 223 kts | 133° |
| 2026-04-30 10:12 | 55.77422 | 12.83315 | 3029 ft | 220 kts | 135° |
| 2026-04-30 10:13 | 55.76353 | 12.85202 | 2982 ft | 219 kts | 135° |
| 2026-04-30 10:13 | 55.75104 | 12.86625 | 2953 ft | 207 kts | 166° |
| 2026-04-30 10:13 | 55.73766 | 12.86430 | 2978 ft | 191 kts | 213° |
| 2026-04-30 10:13 | 55.72939 | 12.84731 | 2924 ft | 180 kts | 249° |
| 2026-04-30 10:14 | 55.72294 | 12.82802 | 2672 ft | 183 kts | 240° |
| 2026-04-30 10:14 | 55.71505 | 12.80987 | 2391 ft | 184 kts | 232° |
| 2026-04-30 10:14 | 55.69677 | 12.77887 | 1877 ft | 178 kts | 225° |
| 2026-04-30 10:15 | 55.68784 | 12.76452 | 1638 ft | 168 kts | 225° |
| 2026-04-30 10:15 | 55.67922 | 12.75124 | 1439 ft | 161 kts | 225° |
| 2026-04-30 10:15 | 55.67086 | 12.73820 | 1223 ft | 160 kts | 225° |
| 2026-04-30 10:15 | 55.66264 | 12.72538 | 1003 ft | 153 kts | 225° |
| 2026-04-30 10:16 | 55.65482 | 12.71324 | 806 ft | 147 kts | 225° |
| 2026-04-30 10:16 | 55.64721 | 12.70126 | 579 ft | 148 kts | 225° |
| 2026-04-30 10:16 | 55.63949 | 12.68934 | 369 ft | 146 kts | 223° |
| 2026-04-30 10:17 | 55.62409 | 12.66549 | 42 ft | 149 kts | 224° |
| 2026-04-30 10:17 | 55.61314 | 12.64863 | 29 ft | 53 kts | 221° |
| 2026-04-30 10:17 | 55.61068 | 12.64484 | 27 ft | 45 kts | 221° |
| 2026-04-30 10:18 | 55.60851 | 12.64152 | 29 ft | 39 kts | 222° |
| 2026-04-30 10:18 | 55.60701 | 12.63907 | 28 ft | 17 kts | 233° |
| 2026-04-30 10:18 | 55.60707 | 12.63774 | 28 ft | 11 kts | 300° |
| 2026-04-30 10:19 | 55.60810 | 12.63577 | 28 ft | 3 kts | 345° |
| 2026-04-30 10:19 | 55.60815 | 12.63579 | 28 ft | 2 kts | 7° |
| 2026-04-30 10:19 | 55.60868 | 12.63636 | 28 ft | 16 kts | 32° |
| 2026-04-30 10:19 | 55.60996 | 12.63782 | 28 ft | 28 kts | 33° |
| 2026-04-30 10:20 | 55.61166 | 12.63977 | 28 ft | 29 kts | 33° |
| 2026-04-30 10:20 | 55.61496 | 12.64361 | 28 ft | 28 kts | 33° |
| 2026-04-30 10:20 | 55.61656 | 12.64545 | 28 ft | 27 kts | 33° |
| 2026-04-30 10:21 | 55.61814 | 12.64725 | 28 ft | 27 kts | 32° |
| 2026-04-30 10:21 | 55.61970 | 12.64901 | 27 ft | 26 kts | 32° |
| 2026-04-30 10:21 | 55.62121 | 12.65076 | 28 ft | 26 kts | 34° |
| 2026-04-30 10:21 | 55.62280 | 12.65206 | 28 ft | 25 kts | 9° |
| 2026-04-30 10:22 | 55.62413 | 12.65205 | 28 ft | 14 kts | 356° |
| 2026-04-30 10:22 | 55.62507 | 12.65188 | 28 ft | 14 kts | 353° |
| 2026-04-30 10:22 | 55.62556 | 12.65177 | 28 ft | 3 kts | 348° |
| 2026-04-30 10:22 | 55.62572 | 12.65153 | 28 ft | 3 kts | 308° |
| 2026-04-30 10:23 | 55.62575 | 12.65125 | 28 ft | 2 kts | 272° |
| 2026-04-30 10:23 | 55.62574 | 12.65095 | 28 ft | 3 kts | 268° |
| 2026-04-30 10:23 | 55.62573 | 12.65057 | 28 ft | 3 kts | 268° |
| 2026-04-30 10:23 | 55.62573 | 12.65038 | 28 ft | 0 kts | 268° |